Time;durP1;ratioP1;P1;durP2;ratioP2;P2;SDS_P1;SDS_P2;PMS_P1;PMS_P2;Temp;Humidity;BMP_temperature;BMP_pressure;BME280_temperature;BME280_humidity;BME280_pressure;Samples;Min_cycle;Max_cycle;Signal;HPM_P1;HPM_P2
2022/11/29 01:29:41;;;;;;;14.65;13.27;;;;;;;11.28;72.53;101946.09;4972812;28;102858;-56
2022/11/29 01:32:14;;;;;;;13.63;12.43;;;;;;;11.29;72.10;101939.59;4971259;28;102108;-56
2022/11/29 01:34:40;;;;;;;11.73;10.60;;;;;;;11.32;72.17;101930.06;4961009;28;103890;-56
2022/11/29 01:37:07;;;;;;;12.52;11.30;;;;;;;11.34;72.70;101938.00;4942266;28;104522;-56
2022/11/29 01:39:35;;;;;;;13.38;11.98;;;;;;;11.35;72.21;101934.22;4936015;28;102261;-55
2022/11/29 01:42:09;;;;;;;12.93;11.65;;;;;;;11.36;72.54;101938.56;4946454;28;102923;-55
2022/11/29 01:45:06;;;;;;;13.60;12.40;;;;;;;11.34;72.26;101938.84;4944127;28;103853;-55
2022/11/29 01:47:40;;;;;;;13.32;12.07;;;;;;;11.36;72.67;101941.28;4951001;28;102309;-56
2022/11/29 01:50:10;;;;;;;13.50;12.13;;;;;;;11.37;72.24;101954.69;4949534;28;102324;-56
2022/11/29 01:52:40;;;;;;;13.45;12.15;;;;;;;11.40;72.29;101953.38;4933543;28;102631;-56
2022/11/29 01:55:10;;;;;;;14.00;12.73;;;;;;;11.41;72.42;101952.31;4946518;28;103905;-55
2022/11/29 01:57:39;;;;;;;14.38;13.15;;;;;;;11.41;72.49;101947.69;4949691;28;102863;-56
2022/11/29 02:00:12;;;;;;;13.27;12.07;;;;;;;11.41;72.40;101955.03;4951337;28;102623;-55
2022/11/29 02:02:42;;;;;;;11.95;10.05;;;;;;;11.42;72.37;101956.69;4966281;28;102182;-56
2022/11/29 02:05:09;;;;;;;12.23;11.00;;;;;;;11.41;72.20;101950.41;4966668;28;104188;-56
2022/11/29 02:07:36;;;;;;;11.88;10.55;;;;;;;11.40;72.53;101953.38;4951114;28;102390;-56
2022/11/29 02:10:06;;;;;;;10.75;9.75;;;;;;;11.38;72.18;101950.91;4949814;28;102194;-56
2022/11/29 02:12:41;;;;;;;12.98;11.68;;;;;;;11.39;72.22;101951.72;4951818;28;102761;-56
2022/11/29 02:15:27;;;;;;;12.60;11.23;;;;;;;11.40;72.26;101947.94;4948776;28;103855;-55
2022/11/29 02:18:03;;;;;;;11.77;10.63;;;;;;;11.43;72.57;101947.41;4930165;28;102283;-56
2022/11/29 02:21:19;;;;;;;12.48;11.20;;;;;;;11.41;72.30;101947.69;4910950;28;102506;-56
2022/11/29 02:24:29;;;;;;;12.15;10.95;;;;;;;11.43;72.12;101947.41;4914879;28;102301;-56
2022/11/29 02:27:31;;;;;;;12.07;10.98;;;;;;;11.43;71.99;101952.88;4936652;28;104018;-56
2022/11/29 02:30:40;;;;;;;12.20;11.07;;;;;;;11.46;72.06;101955.09;4920121;28;101859;-56
2022/11/29 02:33:37;;;;;;;12.98;11.65;;;;;;;11.48;72.38;101958.44;4908514;28;102584;-56
2022/11/29 02:36:34;;;;;;;13.32;12.07;;;;;;;11.47;72.03;101956.78;4936270;28;102345;-56
2022/11/29 02:39:36;;;;;;;13.73;12.32;;;;;;;11.49;72.07;101958.16;4921692;28;103961;-55
2022/11/29 02:42:27;;;;;;;11.82;10.57;;;;;;;11.49;72.21;101958.16;4912876;28;102588;-56
2022/11/29 02:45:16;;;;;;;14.60;13.30;;;;;;;11.51;71.95;101963.38;4916719;28;102043;-56
2022/11/29 02:47:55;;;;;;;15.07;13.68;;;;;;;11.52;72.03;101968.56;4917239;28;102227;-56
2022/11/29 02:50:33;;;;;;;14.70;13.30;;;;;;;11.52;72.15;101956.84;4917616;28;104113;-56
2022/11/29 02:53:08;;;;;;;14.90;13.45;;;;;;;11.51;72.09;101972.38;4916750;28;102069;-56
2022/11/29 02:55:42;;;;;;;14.88;13.55;;;;;;;11.51;71.88;101960.66;4917563;28;102129;-56
2022/11/29 02:58:18;;;;;;;15.45;14.02;;;;;;;11.52;72.13;101962.31;4917852;28;102163;-55
2022/11/29 03:00:55;;;;;;;15.48;13.90;;;;;;;11.52;71.90;101962.31;4916005;28;103927;-55
2022/11/29 03:03:28;;;;;;;15.57;14.00;;;;;;;11.52;72.25;101967.75;4918357;28;102137;-56
2022/11/29 03:06:16;;;;;;;14.98;13.50;;;;;;;11.55;71.99;101964.53;4915518;28;102245;-55
2022/11/29 03:08:53;;;;;;;16.50;14.70;;;;;;;11.57;72.09;101970.56;4918479;28;102253;-56
2022/11/29 03:11:28;;;;;;;15.60;14.23;;;;;;;11.54;71.99;101977.34;4914079;28;103949;-56
2022/11/29 03:14:11;;;;;;;17.75;15.73;;;;;;;11.51;72.23;101979.75;4904311;28;102011;-56
2022/11/29 03:16:45;;;;;;;18.10;16.33;;;;;;;11.52;72.20;101984.13;4903577;28;102509;-55
2022/11/29 03:19:30;;;;;;;16.65;15.10;;;;;;;11.52;72.40;101984.13;4917080;28;102360;-55
2022/11/29 03:22:09;;;;;;;16.20;14.70;;;;;;;11.52;72.16;101981.38;4898179;28;103927;-56
2022/11/29 03:24:41;;;;;;;17.17;15.52;;;;;;;11.54;72.12;101973.81;4898137;28;102192;-55
2022/11/29 03:27:18;;;;;;;18.23;16.48;;;;;;;11.55;71.98;101989.06;4909542;28;102766;-55
2022/11/29 03:29:49;;;;;;;17.95;16.25;;;;;;;11.56;72.20;101985.28;4909917;28;102708;-55
2022/11/29 03:32:24;;;;;;;19.45;17.65;;;;;;;11.54;72.06;101992.88;4916804;28;104072;-55
2022/11/29 03:35:01;;;;;;;18.55;16.95;;;;;;;11.54;72.32;101998.34;4913888;28;102403;-55
2022/11/29 03:37:41;;;;;;;18.20;16.40;;;;;;;11.54;72.02;102006.53;4916900;28;104732;-55
2022/11/29 03:40:09;;;;;;;;;;;;;;;11.54;72.00;102003.78;4918834;28;102239;-55
2022/11/29 03:42:39;;;;;;;;;;;;;;;11.53;72.28;102007.56;4915510;28;104075;-55
2022/11/29 03:45:17;;;;;;;16.05;14.45;;;;;;;11.53;72.24;102004.84;4916807;28;102247;-56
2022/11/29 03:47:51;;;;;;;15.90;14.40;;;;;;;11.53;72.28;102013.03;4916578;28;102085;-55
2022/11/29 03:50:22;;;;;;;16.65;15.00;;;;;;;11.54;72.01;102015.53;4918266;28;102680;-55
2022/11/29 03:52:53;;;;;;;17.85;16.13;;;;;;;11.53;72.08;102018.47;4916172;28;103932;-56
2022/11/29 03:55:45;;;;;;;19.40;17.50;;;;;;;11.54;71.91;102015.53;4898425;28;102343;-55
2022/11/29 03:58:28;;;;;;;18.63;16.83;;;;;;;11.54;72.27;102012.78;4906188;28;102389;-56
2022/11/29 04:01:37;;;;;;;18.27;16.40;;;;;;;11.53;72.13;102019.31;4916435;28;102153;-56
2022/11/29 04:04:21;;;;;;;;;;;;;;;11.53;72.26;102015.75;4875377;28;104201;-55
2022/11/29 04:07:03;;;;;;;16.67;14.98;;;;;;;11.55;71.92;102016.34;4886075;28;102601;-56
2022/11/29 04:09:50;;;;;;;17.55;15.95;;;;;;;11.55;72.15;102016.34;4914035;28;102326;-56
2022/11/29 04:12:37;;;;;;;17.05;15.60;;;;;;;11.54;72.15;102014.69;4918514;28;102401;-56
2022/11/29 04:15:31;;;;;;;19.10;17.30;;;;;;;11.54;71.65;102011.97;4915184;28;103816;-56
2022/11/29 04:18:36;;;;;;;18.98;17.10;;;;;;;11.54;72.27;102014.69;4914446;28;101978;-56
2022/11/29 04:21:27;;;;;;;17.95;16.15;;;;;;;11.53;72.18;102015.75;4893367;28;102005;-56
2022/11/29 04:24:14;;;;;;;19.08;17.08;;;;;;;11.52;72.12;102014.94;4916754;28;102219;-56
2022/11/29 04:27:12;;;;;;;20.63;18.50;;;;;;;11.53;72.10;102023.94;4915874;28;104102;-56
2022/11/29 04:30:05;;;;;;;15.07;13.73;;;;;;;11.52;72.21;102019.56;4916646;28;102198;-56
2022/11/29 04:33:02;;;;;;;17.70;16.02;;;;;;;11.52;72.05;102022.28;4908583;28;102248;-56
2022/11/29 04:35:41;;;;;;;18.70;16.92;;;;;;;11.51;72.00;102026.09;4899190;28;102360;-56
2022/11/29 04:38:45;;;;;;;19.75;17.85;;;;;;;11.49;72.17;102034.50;4904484;28;107650;-56
2022/11/29 04:41:30;;;;;;;19.27;17.58;;;;;;;11.51;72.03;102037.81;4905711;28;102227;-56
2022/11/29 04:44:24;;;;;;;18.40;16.65;;;;;;;11.52;72.01;102033.19;4915290;28;102259;-56
2022/11/29 04:47:14;;;;;;;19.55;17.75;;;;;;;11.50;71.85;102035.31;4915569;28;102389;-56
2022/11/29 04:49:58;;;;;;;18.15;16.52;;;;;;;11.50;72.36;102040.78;4909606;28;103928;-56
2022/11/29 04:52:41;;;;;;;18.35;16.65;;;;;;;11.47;72.10;102042.13;4914937;28;102383;-56
2022/11/29 04:55:21;;;;;;;18.27;16.58;;;;;;;11.45;71.94;102043.41;4915821;28;102259;-56
2022/11/29 04:57:57;;;;;;;18.50;16.70;;;;;;;11.44;72.48;102045.31;4915044;28;102155;-56
2022/11/29 05:00:26;;;;;;;19.40;17.60;;;;;;;11.47;72.11;102038.56;4913615;28;104308;-56
2022/11/29 05:02:55;;;;;;;18.35;16.73;;;;;;;11.48;72.04;102042.94;4916888;28;102271;-56
2022/11/29 05:05:33;;;;;;;18.63;17.02;;;;;;;11.49;72.40;102055.47;4905803;28;102400;-56
2022/11/29 05:08:22;;;;;;;18.75;16.95;;;;;;;11.47;71.98;102055.75;4903699;28;102349;-56
2022/11/29 05:11:02;;;;;;;18.23;16.65;;;;;;;11.49;71.87;102059.03;4914862;28;104092;-56
2022/11/29 05:13:38;;;;;;;17.70;16.20;;;;;;;11.49;72.28;102066.38;4915777;28;102832;-56
2022/11/29 05:16:30;;;;;;;17.88;16.17;;;;;;;11.48;72.09;102064.75;4912070;28;102186;-56
2022/11/29 05:19:13;;;;;;;17.77;16.10;;;;;;;11.49;72.05;102072.66;4907505;28;102509;-56
2022/11/29 05:21:51;;;;;;;18.63;17.00;;;;;;;11.49;71.82;102066.38;4912355;28;108812;-56
2022/11/29 05:24:34;;;;;;;17.42;15.80;;;;;;;11.48;71.85;102059.28;4916311;28;101828;-56
2022/11/29 05:27:11;;;;;;;18.45;16.85;;;;;;;11.46;72.25;102062.25;4907898;28;102299;-56
2022/11/29 05:29:45;;;;;;;20.02;18.35;;;;;;;11.45;72.21;102060.59;4902958;28;102353;-56
2022/11/29 05:32:27;;;;;;;19.40;17.70;;;;;;;11.46;71.91;102073.16;4898687;28;103903;-56
2022/11/29 05:35:13;;;;;;;18.83;17.15;;;;;;;11.47;72.10;102079.44;4906558;28;102087;-56
2022/11/29 05:37:45;;;;;;;19.88;18.25;;;;;;;11.48;71.59;102086.56;4897495;28;103653;-56
2022/11/29 05:40:40;;;;;;;19.35;17.58;;;;;;;11.48;72.13;102094.72;4899588;28;102338;-56
2022/11/29 05:43:28;;;;;;;18.38;16.77;;;;;;;11.50;71.71;102092.56;4898552;28;103721;-56
2022/11/29 05:46:00;;;;;;;19.27;17.63;;;;;;;11.48;71.74;102092.00;4899737;28;102895;-56
2022/11/29 05:48:34;;;;;;;20.00;18.30;;;;;;;11.48;71.91;102089.28;4900282;28;102585;-56
2022/11/29 05:51:14;;;;;;;19.83;18.02;;;;;;;11.48;72.00;102097.47;4899552;28;102748;-56
2022/11/29 05:53:51;;;;;;;19.63;18.00;;;;;;;11.49;71.72;102099.94;4901494;28;103925;-56
2022/11/29 05:56:25;;;;;;;20.17;18.38;;;;;;;11.50;71.96;102095.28;4899590;28;102109;-56
2022/11/29 05:58:55;;;;;;;17.98;16.35;;;;;;;11.49;71.70;102094.47;4898017;28;102814;-56
2022/11/29 06:01:26;;;;;;;19.52;17.92;;;;;;;11.50;72.16;102095.28;4897862;28;102767;-56
2022/11/29 06:04:00;;;;;;;22.17;20.23;;;;;;;11.49;72.11;102088.19;4894149;28;104330;-56
2022/11/29 06:06:35;;;;;;;19.50;17.77;;;;;;;11.51;71.95;102078.72;4901770;28;102728;-56
2022/11/29 06:09:12;;;;;;;20.27;18.65;;;;;;;11.51;71.88;102078.72;4902061;28;102286;-56
2022/11/29 06:11:44;;;;;;;21.90;20.00;;;;;;;11.50;71.54;102079.78;4902667;28;102712;-56
2022/11/29 06:14:24;;;;;;;21.67;19.85;;;;;;;11.51;71.73;102077.88;4901080;28;104431;-56
2022/11/29 06:17:24;;;;;;;23.38;21.33;;;;;;;11.50;72.04;102079.78;4900682;28;102303;-56
2022/11/29 06:20:18;;;;;;;19.42;17.83;;;;;;;11.50;71.69;102089.84;4900321;28;102536;-56
2022/11/29 06:23:16;;;;;;;18.38;16.70;;;;;;;11.51;71.78;102083.34;4904112;28;102720;-56
2022/11/29 06:25:56;;;;;;;19.10;17.40;;;;;;;11.50;71.82;102089.84;4907291;28;104258;-56
2022/11/29 06:28:35;;;;;;;20.67;18.77;;;;;;;11.53;71.92;102094.81;4901978;28;102339;-56
2022/11/29 06:31:11;;;;;;;22.38;20.48;;;;;;;11.51;71.59;102102.44;4900207;28;102352;-56
2022/11/29 06:33:45;;;;;;;20.27;18.63;;;;;;;11.51;71.67;102097.78;4901638;28;102927;-56
2022/11/29 06:36:18;;;;;;;21.33;19.35;;;;;;;11.52;71.79;102093.16;4899724;28;103922;-56
2022/11/29 06:38:45;;;;;;;21.38;19.27;;;;;;;11.52;71.65;102098.63;4900130;28;102619;-56
2022/11/29 06:41:16;;;;;;;20.80;18.98;;;;;;;11.52;71.62;102094.00;4900215;28;102314;-56
2022/11/29 06:43:44;;;;;;;21.90;20.10;;;;;;;11.52;71.52;102093.16;4901128;28;102405;-56
2022/11/29 06:46:17;;;;;;;20.73;19.02;;;;;;;11.50;72.04;102101.59;4896356;28;104133;-56
2022/11/29 06:48:49;;;;;;;21.55;19.80;;;;;;;11.49;71.82;102094.47;4902935;28;102641;-56
2022/11/29 06:51:24;;;;;;;21.45;19.55;;;;;;;11.48;71.73;102092.00;4902635;28;103065;-56
2022/11/29 06:54:03;;;;;;;21.25;19.63;;;;;;;11.45;71.88;102093.31;4917697;28;102281;-56
2022/11/29 06:56:39;;;;;;;19.67;17.90;;;;;;;11.48;72.15;102097.47;4906881;28;103989;-56
2022/11/29 06:59:13;;;;;;;21.90;19.88;;;;;;;11.50;71.73;102107.06;4898025;28;102553;-56
2022/11/29 11:51:41;;;;;;;29.77;16.02;;;;;;;11.21;71.11;102042.69;5042673;27;102299;-56
2022/11/29 11:54:13;;;;;;;42.70;13.98;;;;;;;11.21;70.98;102046.22;5017579;28;102304;-55
2022/11/29 11:56:41;;;;;;;27.23;14.20;;;;;;;11.23;70.86;102046.84;4999638;28;104795;-55
2022/11/29 11:59:16;;;;;;;26.75;12.27;;;;;;;11.24;71.04;102053.09;5001810;27;102743;-55
2022/11/29 12:01:43;;;;;;;18.98;11.90;;;;;;;11.23;71.15;102051.47;5020994;28;102545;-55
2022/11/29 12:04:14;;;;;;;17.33;12.18;;;;;;;11.24;71.04;102053.09;5022278;27;102504;-56
2022/11/29 12:06:48;;;;;;;20.13;13.00;;;;;;;11.25;70.94;102055.59;5012149;27;103942;-55
2022/11/29 12:09:32;;;;;;;15.60;13.25;;;;;;;11.25;70.91;102050.16;5009892;27;102142;-55
2022/11/29 12:12:09;;;;;;;17.13;11.88;;;;;;;11.25;71.11;102049.31;4999879;28;102683;-56
2022/11/29 12:14:44;;;;;;;16.73;13.77;;;;;;;11.27;71.17;102058.91;5001145;28;102726;-55
2022/11/29 12:17:18;;;;;;;15.20;13.32;;;;;;;11.25;70.90;102049.31;4999468;27;104082;-55
2022/11/29 12:19:58;;;;;;;18.77;14.38;;;;;;;11.27;71.14;102053.44;5007564;28;102412;-55
2022/11/29 12:22:32;;;;;;;16.48;14.82;;;;;;;11.28;70.89;102055.09;5002022;28;102415;-55
2022/11/29 12:25:05;;;;;;;16.88;15.02;;;;;;;11.28;70.91;102049.63;5016685;27;102481;-55
2022/11/29 12:27:31;;;;;;;16.63;15.00;;;;;;;11.27;70.82;102058.91;5023082;27;104041;-55
2022/11/29 12:29:58;;;;;;;16.67;15.32;;;;;;;11.27;71.02;102042.53;5008387;27;102212;-55
2022/11/29 12:32:42;;;;;;;17.75;16.20;;;;;;;11.28;71.09;102046.91;5004350;28;102607;-55
2022/11/29 12:35:46;;;;;;;16.55;14.95;;;;;;;11.28;71.17;102043.38;5005152;27;102385;-55
2022/11/29 12:38:31;;;;;;;15.65;14.30;;;;;;;11.29;70.93;102045.88;4992715;28;103908;-55
2022/11/29 12:41:06;;;;;;;18.35;16.85;;;;;;;11.30;70.81;102039.34;5021975;27;102170;-56
2022/11/29 12:43:46;;;;;;;21.17;15.93;;;;;;;11.30;70.94;102042.06;5034747;27;102624;-55
2022/11/29 12:46:21;;;;;;;20.02;18.33;;;;;;;11.30;71.16;102046.69;5037481;27;102932;-56
2022/11/29 12:48:57;;;;;;;20.02;18.48;;;;;;;11.33;71.19;102050.84;5039552;27;104064;-56
2022/11/29 12:51:35;;;;;;;22.40;20.85;;;;;;;11.31;71.09;102045.63;5028920;27;102165;-55
2022/11/29 12:54:42;;;;;;;22.17;20.60;;;;;;;11.33;71.15;102050.84;5023697;27;102685;-55
2022/11/29 12:57:17;;;;;;;20.60;18.73;;;;;;;11.31;70.79;102049.16;5022674;27;102597;-55
2022/11/29 13:00:03;;;;;;;19.90;18.27;;;;;;;11.30;71.06;102058.41;5023990;27;104357;-56
2022/11/29 13:02:47;;;;;;;21.13;19.55;;;;;;;11.31;70.91;102064.69;5022717;27;102534;-55
2022/11/29 13:05:29;;;;;;;21.10;19.50;;;;;;;11.30;71.19;102063.88;5021760;27;104612;-55
2022/11/29 13:08:15;;;;;;;22.92;21.30;;;;;;;11.32;71.15;102060.88;5021801;27;102383;-55
2022/11/29 13:10:56;;;;;;;22.00;20.48;;;;;;;11.31;71.29;102060.06;5017879;27;103980;-55
2022/11/29 13:13:30;;;;;;;26.40;24.45;;;;;;;11.34;70.77;102063.38;5018421;27;102303;-56
2022/11/29 13:16:04;;;;;;;23.92;22.35;;;;;;;11.32;71.18;102049.97;5013993;27;102268;-55
2022/11/29 13:18:38;;;;;;;25.40;23.75;;;;;;;11.30;71.11;102057.59;5021248;27;102522;-56
2022/11/29 13:21:12;;;;;;;26.33;24.38;;;;;;;11.30;70.86;102057.59;5017572;27;103893;-56
2022/11/29 13:23:45;;;;;;;26.88;25.08;;;;;;;11.29;71.07;102062.22;5015157;27;102403;-55
2022/11/29 13:26:15;;;;;;;28.52;26.55;;;;;;;11.29;70.92;102062.22;5020937;27;102647;-56
2022/11/29 13:28:45;;;;;;;26.20;24.50;;;;;;;11.27;70.81;102058.91;5015925;27;102691;-56
2022/11/29 13:31:15;;;;;;;27.38;25.27;;;;;;;11.24;71.04;102053.09;5019520;27;104161;-55
2022/11/29 13:33:52;;;;;;;28.20;26.42;;;;;;;11.24;71.50;102056.66;5022858;27;103696;-55
2022/11/29 14:03:20;;;;;;;67.97;64.13;;;;;;;11.25;71.39;102066.50;5009362;28;102652;-67
2022/11/29 14:05:49;;;;;;;54.15;50.95;;;;;;;11.23;70.96;102060.47;4987320;28;102862;-69
2022/11/29 14:08:27;;;;;;;43.53;40.90;;;;;;;11.25;71.25;102061.06;4978534;28;104133;-69
2022/11/29 14:10:57;;;;;;;42.70;40.08;;;;;;;11.28;71.11;102063.25;5001955;27;102110;-69
2022/11/29 14:13:31;;;;;;;37.60;35.35;;;;;;;11.29;70.91;102067.66;4998061;28;102093;-68
2022/11/29 14:16:01;;;;;;;35.53;33.35;;;;;;;11.27;71.00;102068.97;4998811;28;102483;-69
2022/11/29 14:19:02;;;;;;;35.92;33.83;;;;;;;11.25;71.01;102069.22;4996529;28;103865;-68
2022/11/29 14:22:04;;;;;;;31.35;29.20;;;;;;;11.26;71.13;102078.22;4996104;28;102629;-68
2022/11/29 14:24:38;;;;;;;32.13;30.15;;;;;;;11.26;70.84;102084.50;4996152;28;102527;-69
2022/11/29 14:27:38;;;;;;;33.13;31.08;;;;;;;11.25;71.28;102084.72;4983702;28;102648;-68
2022/11/29 14:30:28;;;;;;;32.05;29.95;;;;;;;11.27;70.68;102074.44;5000025;27;103820;-68
2022/11/29 14:33:02;;;;;;;29.25;27.45;;;;;;;11.25;71.24;102065.66;4993699;28;102357;-69
2022/11/29 14:35:36;;;;;;;36.28;34.05;;;;;;;11.26;71.02;102068.16;4993586;28;102162;-69
2022/11/29 14:38:11;;;;;;;31.33;29.48;;;;;;;11.27;71.22;102064.34;4997964;28;102843;-69
2022/11/29 14:40:47;;;;;;;34.20;32.15;;;;;;;11.25;71.38;102077.41;4994609;28;104034;-68
2022/11/29 14:43:19;;;;;;;33.15;31.20;;;;;;;11.24;70.79;102075.72;5001303;28;102265;-68
2022/11/29 14:45:46;;;;;;;32.80;30.95;;;;;;;11.22;70.86;102077.88;5014802;28;102360;-68
2022/11/29 14:48:24;;;;;;;35.78;33.67;;;;;;;11.23;70.85;102068.63;4999832;27;102518;-68
2022/11/29 14:51:07;;;;;;;30.42;28.50;;;;;;;11.25;71.13;102071.97;4991968;28;104003;-68
2022/11/29 14:53:36;;;;;;;30.27;28.42;;;;;;;11.26;71.11;102073.59;5004286;28;102486;-68
2022/11/29 14:56:37;;;;;;;33.20;31.33;;;;;;;11.25;71.21;102065.66;5003483;28;101890;-67
2022/11/29 14:59:53;;;;;;;31.70;29.88;;;;;;;11.27;70.92;102074.44;5005097;28;102553;-68
2022/11/29 15:02:31;;;;;;;28.38;26.67;;;;;;;11.28;70.62;102076.91;4903621;28;103972;-68
2022/11/29 15:05:12;;;;;;;29.38;27.58;;;;;;;11.25;70.82;102071.09;4968492;28;103287;-67
2022/11/29 15:07:46;;;;;;;30.77;29.00;;;;;;;11.24;70.96;102080.34;4982121;28;102592;-68
2022/11/29 15:10:20;;;;;;;31.73;29.75;;;;;;;11.26;70.86;102078.22;4989970;28;102899;-68
2022/11/29 15:12:48;;;;;;;34.03;32.05;;;;;;;11.25;71.28;102082.00;4986209;28;103988;-69
2022/11/29 15:15:30;;;;;;;35.63;33.53;;;;;;;11.24;71.06;102080.34;4979797;28;102241;-68
2022/11/29 15:18:02;;;;;;;32.38;30.35;;;;;;;11.25;70.73;102087.44;4992897;28;102376;-69
2022/11/29 15:20:49;;;;;;;34.80;32.78;;;;;;;11.25;70.82;102082.84;4977117;28;102192;-68
2022/11/29 15:23:18;;;;;;;29.80;28.00;;;;;;;11.26;70.67;102079.06;4984206;28;103862;-68
2022/11/29 15:25:49;;;;;;;31.60;29.77;;;;;;;11.26;71.17;102084.50;4990690;28;102566;-68
2022/11/29 15:28:22;;;;;;;30.80;29.05;;;;;;;11.27;71.10;102071.69;4987625;28;102778;-69
2022/11/29 15:30:59;;;;;;;29.02;27.38;;;;;;;11.26;71.10;102084.50;4985012;28;102230;-68
2022/11/29 15:33:27;;;;;;;32.33;30.48;;;;;;;11.27;71.07;102086.16;4983177;28;104482;-68
2022/11/29 15:36:02;;;;;;;30.53;28.77;;;;;;;11.27;70.64;102091.59;4988062;28;102219;-68
2022/11/29 15:38:40;;;;;;;32.22;30.33;;;;;;;11.27;70.83;102091.59;4987237;28;102633;-68
2022/11/29 15:41:18;;;;;;;21.60;20.15;;;;;;;11.27;70.85;102094.31;4992103;28;102039;-68
2022/11/29 15:43:48;;;;;;;30.90;29.10;;;;;;;11.28;70.68;102100.59;4987042;28;104892;-68
2022/11/29 15:46:18;;;;;;;32.13;30.20;;;;;;;11.27;70.87;102102.50;4980736;28;102283;-68
2022/11/29 15:48:45;;;;;;;31.80;29.75;;;;;;;11.29;70.93;102105.81;4982345;28;102159;-68
2022/11/29 15:51:21;;;;;;;34.40;32.35;;;;;;;11.29;70.81;102105.81;4984691;28;102260;-68
2022/11/29 15:53:53;;;;;;;33.90;31.98;;;;;;;11.30;70.55;102101.19;4981891;28;103885;-68
2022/11/29 15:56:25;;;;;;;35.65;33.65;;;;;;;11.34;70.87;102101.53;4992394;28;102147;-68
2022/11/29 15:58:58;;;;;;;31.80;29.95;;;;;;;11.34;70.77;102101.53;4980852;28;102494;-68
2022/11/29 16:01:25;;;;;;;34.42;32.42;;;;;;;11.34;71.23;102107.00;4982593;28;102201;-68
2022/11/29 16:03:55;;;;;;;33.17;31.25;;;;;;;11.35;70.63;102108.63;4981276;28;103931;-68
2022/11/29 16:06:27;;;;;;;33.33;31.35;;;;;;;11.34;70.49;102112.44;4987025;28;102111;-68
2022/11/29 16:08:56;;;;;;;33.22;31.23;;;;;;;11.33;70.85;102116.25;4977568;28;102179;-68
2022/11/29 16:11:26;;;;;;;29.70;27.87;;;;;;;11.36;70.61;102118.47;4992517;28;102377;-68
2022/11/29 16:14:15;;;;;;;32.40;30.48;;;;;;;11.35;70.62;102111.38;4978975;28;104057;-68
2022/11/29 16:16:44;;;;;;;31.77;30.05;;;;;;;11.35;70.46;102120.38;4995110;28;102318;-68
2022/11/29 16:19:20;;;;;;;;;;;;;;;11.36;70.61;102121.19;4977332;28;102167;-68
2022/11/29 16:21:58;;;;;;;22.75;21.33;;;;;;;11.37;70.41;102123.69;4981230;28;102273;-68
2022/11/29 16:24:26;;;;;;;25.67;24.20;;;;;;;11.35;70.76;102114.09;4980427;28;103984;-68
2022/11/29 16:26:54;;;;;;;29.07;27.40;;;;;;;11.36;70.90;102107.56;4981045;28;102408;-68
2022/11/29 16:29:25;;;;;;;33.13;31.30;;;;;;;11.36;70.97;102104.84;4979197;28;102690;-68
2022/11/29 16:31:52;;;;;;;30.77;29.08;;;;;;;11.34;70.55;102105.09;4979043;28;102047;-68
2022/11/29 16:34:25;;;;;;;33.85;31.88;;;;;;;11.34;70.83;102107.00;4978427;28;104093;-67
2022/11/29 16:37:02;;;;;;;32.38;30.55;;;;;;;11.34;70.86;102107.81;4977972;28;102435;-68
2022/11/29 16:39:32;;;;;;;32.17;30.35;;;;;;;11.33;70.63;102100.72;4978152;28;102292;-68
2022/11/29 16:42:12;;;;;;;34.83;32.70;;;;;;;11.34;70.64;102107.00;4979728;28;102570;-68
2022/11/29 16:45:01;;;;;;;31.83;30.08;;;;;;;11.33;70.61;102113.53;4980060;28;104008;-68
2022/11/29 16:47:28;;;;;;;;;;;;;;;11.34;70.75;102112.44;4978461;28;102558;-68
2022/11/29 16:50:17;;;;;;;21.67;20.45;;;;;;;11.33;70.43;102121.69;4980473;28;102150;-67
2022/11/29 16:52:43;;;;;;;24.00;22.63;;;;;;;11.33;70.44;102121.69;4978433;28;102456;-68
2022/11/29 16:55:13;;;;;;;27.30;25.75;;;;;;;11.33;70.71;102117.06;4979400;28;104006;-68
2022/11/29 16:57:39;;;;;;;;;;;;;;;11.33;70.53;102119.78;4978069;28;102599;-67
2022/11/29 17:00:28;;;;;;;22.20;20.90;;;;;;;11.31;70.85;102109.13;4980736;28;102575;-68
2022/11/29 17:02:54;;;;;;;;;;;;;;;11.30;70.37;102118.38;4978798;28;102702;-68
2022/11/29 17:05:21;;;;;;;19.10;17.88;;;;;;;11.33;70.43;102118.97;4976460;28;103999;-68
2022/11/29 17:07:48;;;;;;;22.65;21.30;;;;;;;11.31;70.67;102117.28;4979762;28;102534;-68
2022/11/29 17:10:21;;;;;;;26.77;25.27;;;;;;;11.33;70.34;102116.25;4975404;28;102752;-68
2022/11/29 17:12:49;;;;;;;29.40;27.65;;;;;;;11.33;70.67;102111.63;4977866;28;102251;-68
2022/11/29 17:15:15;;;;;;;31.00;29.20;;;;;;;11.32;70.52;102112.66;4979091;28;103876;-68
2022/11/29 17:17:42;;;;;;;31.85;30.05;;;;;;;11.31;70.55;102117.28;4980940;28;103552;-68
2022/11/29 17:20:12;;;;;;;32.30;30.38;;;;;;;11.34;70.68;102117.91;4978063;28;102691;-68
2022/11/29 17:22:39;;;;;;;32.88;30.95;;;;;;;11.33;70.32;102111.63;4980477;28;102589;-68
2022/11/29 17:25:07;;;;;;;34.42;32.47;;;;;;;11.33;70.56;102116.25;4980217;28;104025;-68
2022/11/29 17:27:36;;;;;;;32.97;31.05;;;;;;;11.34;70.32;102115.16;4978459;28;101968;-69
2022/11/29 17:30:04;;;;;;;35.40;33.37;;;;;;;11.34;70.69;102117.91;4981312;28;102424;-68
2022/11/29 17:32:33;;;;;;;30.55;28.80;;;;;;;11.34;70.24;102123.34;4979878;28;102585;-68
2022/11/29 17:34:59;;;;;;;32.80;30.80;;;;;;;11.34;70.39;102112.44;4976947;28;104094;-68
2022/11/29 17:37:27;;;;;;;35.33;33.40;;;;;;;11.35;70.64;102123.09;4979932;28;102247;-68
2022/11/29 17:39:53;;;;;;;35.50;33.35;;;;;;;11.33;70.36;102122.53;4977383;28;102466;-68
2022/11/29 17:42:20;;;;;;;34.13;32.15;;;;;;;11.31;70.67;102120.03;4977909;28;102216;-67
2022/11/29 17:44:48;;;;;;;36.58;34.55;;;;;;;11.33;70.42;102121.69;4977330;28;104373;-68
2022/11/29 17:47:14;;;;;;;34.42;32.55;;;;;;;11.34;70.24;102113.25;4977442;28;102740;-68
2022/11/29 20:01:57;;;;;;;37.88;35.63;;;;;;;11.25;70.80;102131.91;5046979;27;1402138;-55
2022/11/29 20:04:25;;;;;;;25.77;24.25;;;;;;;11.25;70.39;102126.47;5050766;27;102253;-55
2022/11/29 20:06:53;;;;;;;22.45;20.92;;;;;;;11.27;70.34;102128.94;5047014;27;104043;-55
2022/11/29 20:09:21;;;;;;;19.33;17.97;;;;;;;11.26;70.48;102116.38;5058419;27;102239;-56
2022/11/29 20:11:47;;;;;;;19.58;18.42;;;;;;;11.26;70.60;102109.03;5043587;27;102982;-56
2022/11/29 20:14:14;;;;;;;21.23;19.52;;;;;;;11.27;70.68;102113.41;5042486;27;102668;-56
2022/11/29 20:16:41;;;;;;;19.90;18.52;;;;;;;11.26;70.61;102106.31;5039555;27;104003;-56
2022/11/29 20:19:12;;;;;;;20.33;19.05;;;;;;;11.27;70.45;102107.13;5065480;27;101899;-56
2022/11/29 20:21:42;;;;;;;22.38;20.83;;;;;;;11.27;70.48;102113.41;5058510;27;102557;-56
2022/11/29 20:24:10;;;;;;;22.65;21.08;;;;;;;11.29;70.23;102118.63;5065238;27;102625;-55
2022/11/29 20:26:56;;;;;;;19.52;18.23;;;;;;;11.31;70.26;102130.09;5063675;27;104649;-56
2022/11/29 20:29:29;;;;;;;22.77;21.17;;;;;;;11.30;70.14;102140.19;5065584;27;102469;-55
2022/11/29 20:31:55;;;;;;;22.63;21.20;;;;;;;11.30;70.30;102134.72;5063833;27;102573;-55
2022/11/29 20:34:24;;;;;;;23.05;21.65;;;;;;;11.31;69.99;102141.81;5058667;27;102146;-56
2022/11/29 20:37:17;;;;;;;23.97;22.17;;;;;;;11.33;70.31;102148.97;5058538;27;103979;-56
2022/11/29 20:39:50;;;;;;;21.02;19.50;;;;;;;11.31;70.01;102141.81;5059757;27;102264;-57
2022/11/29 20:42:40;;;;;;;24.42;22.95;;;;;;;11.33;70.36;102144.31;5064803;27;102526;-55
2022/11/29 20:45:08;;;;;;;24.95;23.17;;;;;;;11.35;70.29;102152.25;5065024;27;102221;-56
2022/11/29 20:47:43;;;;;;;22.95;21.45;;;;;;;11.33;70.20;102138.06;5059329;27;103969;-56